GOSM

Ouro Sogui Airport

Matam, Senegal
METAR GOSM 200700Z 34002KT CAVOK 22/06 Q1010
Observed Flight Rules
Feb-20 @ 07:00 UTC (36 minutes ago) Visual Flight Rules
Wind Visibility Clouds
340° at 2 knots 10,000+ meters
  • Clear skies
Temperatures Readings
Current 22°C / 72°F
Dewpoint 6°C / 43°F
Humidity 36%
Altimeter 29.82" Hg
Pressure 1010 hPa
Elevation 17
METAR GOSM 200700Z 34002KT CAVOK 22/06 Q1010
Observed Flight Rules
Feb-20 @ 07:00 UTC
(36 minutes ago)
VFR
Wind Visibility
340° at 2 knots 10,000+ meters
Clouds
  • Clear skies
Temperature Dewpoint
22°C / 72°F 6°C / 43°F
Humidity Altimeter Pressure
36% 29.82" Hg 1010 hPa